createdAt,value
2023-02-02T00:01:32.010Z,98770.66
2023-02-02T00:03:59.020Z,98769.69
2023-02-02T00:06:27.469Z,98769.69
2023-02-02T00:08:57.179Z,98771.50
2023-02-02T00:11:24.771Z,98770.53
2023-02-02T00:13:51.403Z,98768.06
2023-02-02T00:16:27.463Z,98770.22
2023-02-02T00:18:56.264Z,98764.06
2023-02-02T00:21:23.460Z,98773.72
2023-02-02T00:23:50.746Z,98774.59
2023-02-02T00:26:18.441Z,98761.94
2023-02-02T00:28:45.112Z,98758.56
2023-02-02T00:31:11.861Z,98755.31
2023-02-02T00:33:38.498Z,98755.44
2023-02-02T00:36:05.722Z,98764.75
2023-02-02T00:38:32.541Z,98768.75
2023-02-02T00:40:59.253Z,98764.41
2023-02-02T00:43:25.835Z,98764.41
2023-02-02T00:45:52.466Z,98764.16
2023-02-02T00:48:19.147Z,98758.63
2023-02-02T00:50:45.844Z,98749.06
2023-02-02T00:53:12.480Z,98767.31
2023-02-02T00:55:39.979Z,98746.56
2023-02-02T00:58:07.848Z,98758.31
2023-02-02T01:03:39.562Z,98758.06
2023-02-02T01:06:06.229Z,98745.13
2023-02-02T01:08:32.825Z,98754.81
2023-02-02T01:11:00.066Z,98753.34
2023-02-02T01:13:26.695Z,98749.00
2023-02-02T01:15:57.558Z,98755.38
2023-02-02T01:18:27.671Z,98755.38
2023-02-02T01:21:01.738Z,98755.72
2023-02-02T01:23:28.803Z,98755.97
2023-02-02T01:25:56.823Z,98759.69
2023-02-02T01:28:24.321Z,98762.97
2023-02-02T01:30:51.690Z,98757.91
2023-02-02T01:33:20.496Z,98760.78
2023-02-02T01:35:55.435Z,98766.31
2023-02-02T01:38:24.466Z,98761.16
2023-02-02T01:40:53.699Z,98747.66
2023-02-02T01:43:45.951Z,98749.22
2023-02-02T01:46:12.599Z,98746.06
2023-02-02T01:48:43.822Z,98749.22
2023-02-02T01:51:16.051Z,98740.06
2023-02-02T01:53:44.952Z,98735.81
2023-02-02T01:56:16.585Z,98740.78
2023-02-02T01:58:45.274Z,98734.75
2023-02-02T02:01:13.313Z,98731.84
2023-02-02T02:03:40.889Z,98741.25
2023-02-02T02:06:13.032Z,98742.38
2023-02-02T02:08:49.621Z,98746.72
2023-02-02T02:11:16.344Z,98744.56
2023-02-02T02:14:01.499Z,98742.03
2023-02-02T02:17:05.410Z,98748.41
2023-02-02T02:20:16.206Z,98763.38
2023-02-02T02:23:44.560Z,98751.69
2023-02-02T02:26:34.926Z,98748.19
2023-02-02T02:29:32.485Z,98746.25
2023-02-02T02:32:17.704Z,98743.13
2023-02-02T02:35:03.799Z,98747.72
2023-02-02T02:37:52.348Z,98743.13
2023-02-02T02:40:36.249Z,98741.31
2023-02-02T02:43:16.312Z,98730.31
2023-02-02T02:45:44.655Z,98745.91
2023-02-02T02:48:13.443Z,98735.16
2023-02-02T02:50:40.198Z,98744.94
2023-02-02T02:53:12.909Z,98736.63
2023-02-02T02:56:06.654Z,98747.25
2023-02-02T02:58:58.317Z,98740.97
2023-02-02T03:01:40.233Z,98743.13
2023-02-02T03:04:13.997Z,98746.03
2023-02-02T03:07:13.368Z,98729.25
2023-02-02T03:09:43.659Z,98745.91
2023-02-02T03:12:10.559Z,98743.25
2023-02-02T03:14:39.377Z,98736.97
2023-02-02T03:17:05.982Z,98740.38
2023-02-02T03:19:32.738Z,98755.09
2023-02-02T03:21:59.333Z,98748.84
2023-02-02T03:24:26.022Z,98754.03
2023-02-02T03:26:53.167Z,98758.50
2023-02-02T03:29:20.025Z,98749.53
2023-02-02T03:31:47.419Z,98753.06
2023-02-02T03:34:14.046Z,98757.53
2023-02-02T03:36:40.694Z,98750.63
2023-02-02T03:39:07.294Z,98758.59
2023-02-02T03:41:33.908Z,98755.22
2023-02-02T03:44:00.518Z,98764.88
2023-02-02T03:46:27.831Z,98755.09
2023-02-02T03:48:54.625Z,98760.31
2023-02-02T03:51:21.294Z,98758.84
2023-02-02T03:53:48.058Z,98757.88
2023-02-02T03:56:16.021Z,98751.84
2023-02-02T03:58:42.628Z,98780.25
2023-02-02T04:01:12.383Z,98774.94
2023-02-02T04:03:39.189Z,98765.84
2023-02-02T04:06:06.253Z,98776.34
2023-02-02T04:08:34.100Z,98781.94
2023-02-02T04:11:01.089Z,98785.56
2023-02-02T04:13:27.879Z,98780.00
2023-02-02T04:16:01.672Z,98792.31
2023-02-02T04:18:29.127Z,98795.94
2023-02-02T04:21:00.518Z,98798.00
2023-02-02T04:23:28.519Z,98800.53
2023-02-02T04:25:55.358Z,98797.03
2023-02-02T04:28:23.859Z,98805.25
2023-02-02T04:30:51.233Z,98805.13
2023-02-02T04:33:18.117Z,98809.50
2023-02-02T04:35:46.151Z,98814.81
2023-02-02T04:38:13.796Z,98802.59
2023-02-02T04:40:42.659Z,98800.78
2023-02-02T04:43:09.763Z,98804.41
2023-02-02T04:45:36.906Z,98796.28
2023-02-02T04:48:04.714Z,98818.66
2023-02-02T04:50:31.664Z,98815.38
2023-02-02T04:52:58.241Z,98816.34
2023-02-02T04:55:25.376Z,98815.28
2023-02-02T04:57:52.132Z,98821.94
2023-02-02T05:00:18.965Z,98826.28
2023-02-02T05:02:45.634Z,98834.97
2023-02-02T05:05:13.954Z,98834.13
2023-02-02T05:07:40.754Z,98827.13
2023-02-02T05:10:08.953Z,98843.78
2023-02-02T05:12:35.795Z,98834.00
2023-02-02T05:15:05.317Z,98845.00
2023-02-02T05:17:32.317Z,98836.44
2023-02-02T05:19:58.958Z,98851.28
2023-02-02T05:22:25.866Z,98857.44
2023-02-02T05:24:52.533Z,98846.72
2023-02-02T05:27:19.092Z,98859.38
2023-02-02T05:29:47.279Z,98867.34
2023-02-02T05:32:13.886Z,98861.69
2023-02-02T05:34:40.468Z,98860.72
2023-02-02T05:37:07.073Z,98873.88
2023-02-02T05:39:33.920Z,98883.69
2023-02-02T05:42:00.482Z,98879.09
2023-02-02T05:44:27.139Z,98873.53
2023-02-02T05:46:53.716Z,98887.09
2023-02-02T05:49:20.419Z,98878.97
2023-02-02T05:51:50.045Z,98888.50
2023-02-02T05:54:20.503Z,98893.00
2023-02-02T05:56:48.586Z,98902.06
2023-02-02T05:59:15.529Z,98904.09
2023-02-02T06:01:42.354Z,98909.78
2023-02-02T06:04:09.217Z,98913.41
2023-02-02T06:06:37.879Z,98894.44
2023-02-02T06:09:06.249Z,98912.41
2023-02-02T06:11:33.369Z,98918.13
2023-02-02T06:14:00.005Z,98918.72
2023-02-02T06:16:26.827Z,98923.16
2023-02-02T06:18:53.963Z,98939.56
2023-02-02T06:21:23.112Z,98938.34
2023-02-02T06:23:49.705Z,98943.03
2023-02-02T06:26:17.872Z,98943.81
2023-02-02T06:28:49.670Z,98949.34
2023-02-02T06:31:19.524Z,98944.78
2023-02-02T06:33:54.497Z,98954.44
2023-02-02T06:36:22.024Z,98952.97
2023-02-02T06:38:50.285Z,98953.94
2023-02-02T06:41:17.423Z,98955.41
2023-02-02T06:43:44.151Z,98963.47
2023-02-02T06:46:10.751Z,98974.84
2023-02-02T06:48:37.482Z,98965.19
2023-02-02T06:51:05.544Z,98967.09
2023-02-02T06:53:33.291Z,98980.16
2023-02-02T06:56:05.557Z,98966.56
2023-02-02T06:58:33.037Z,98969.53
2023-02-02T07:01:10.847Z,98987.34
2023-02-02T07:03:37.864Z,98971.53
2023-02-02T07:06:18.388Z,98984.06
2023-02-02T07:08:45.267Z,98986.03
2023-02-02T07:11:16.899Z,98981.47
2023-02-02T07:13:48.278Z,98985.94
2023-02-02T07:16:17.042Z,98988.47
2023-02-02T07:18:44.670Z,98995.25
2023-02-02T07:21:22.741Z,98984.88
2023-02-02T07:23:50.180Z,98988.88
2023-02-02T07:26:19.087Z,98995.13
2023-02-02T07:28:46.313Z,98996.47
2023-02-02T07:31:19.789Z,99003.72
2023-02-02T07:33:47.712Z,99013.66
2023-02-02T07:36:16.705Z,99017.53
2023-02-02T07:38:45.286Z,99020.88
2023-02-02T07:41:12.416Z,99018.53
2023-02-02T07:43:39.268Z,99014.66
2023-02-02T07:46:09.948Z,99022.00
2023-02-02T07:48:36.901Z,99028.50
2023-02-02T07:51:07.330Z,99031.75
2023-02-02T07:53:34.451Z,99031.56
2023-02-02T07:56:21.272Z,99036.75
2023-02-02T07:58:48.660Z,99041.00
2023-02-02T08:01:16.738Z,99042.38
2023-02-02T08:03:44.276Z,99037.09
2023-02-02T08:06:21.599Z,99053.22
2023-02-02T08:08:49.159Z,99045.53
2023-02-02T08:11:18.646Z,99043.59
2023-02-02T08:13:48.337Z,99042.84
2023-02-02T08:16:15.149Z,99057.84
2023-02-02T08:18:43.425Z,99052.53
2023-02-02T08:21:10.751Z,99063.78
2023-02-02T08:23:39.457Z,99063.47
2023-02-02T08:26:18.246Z,99069.50
2023-02-02T08:28:49.444Z,99073.00
2023-02-02T08:31:18.948Z,99072.03
2023-02-02T08:33:45.957Z,99084.41
2023-02-02T08:36:17.482Z,99071.81
2023-02-02T08:38:44.512Z,99078.94
2023-02-02T08:41:15.015Z,99076.88
2023-02-02T08:43:42.586Z,99082.22
2023-02-02T08:46:11.480Z,99084.53
2023-02-02T08:48:39.024Z,99088.03
2023-02-02T08:51:07.022Z,99084.91
2023-02-02T08:53:34.324Z,99087.56
2023-02-02T08:56:09.907Z,99094.72
2023-02-02T08:58:37.382Z,99103.53
2023-02-02T09:01:28.324Z,99103.31
2023-02-02T09:03:56.841Z,99102.81
2023-02-02T09:06:29.117Z,99107.50
2023-02-02T09:08:55.855Z,99108.59
2023-02-02T09:11:22.535Z,99111.47
2023-02-02T09:13:53.214Z,99120.19
2023-02-02T09:16:20.190Z,99129.16
2023-02-02T09:18:47.197Z,99131.81
2023-02-02T09:21:16.951Z,99125.13
2023-02-02T09:23:44.790Z,99133.19
2023-02-02T09:26:18.202Z,99137.47
2023-02-02T09:28:47.524Z,99137.22
2023-02-02T09:31:15.096Z,99144.59
2023-02-02T09:33:42.688Z,99143.63
2023-02-02T09:36:10.914Z,99138.94
2023-02-02T09:38:38.811Z,99138.66
2023-02-02T09:41:52.277Z,99147.72
2023-02-02T09:44:46.898Z,99159.75
2023-02-02T09:47:25.660Z,99165.13
2023-02-02T09:50:16.681Z,99175.25
2023-02-02T09:52:43.232Z,99170.22
2023-02-02T09:55:28.056Z,99177.56
2023-02-02T09:58:19.467Z,99182.81
2023-02-02T10:01:13.687Z,99189.47
2023-02-02T10:04:01.979Z,99186.47
2023-02-02T10:06:37.429Z,99188.19
2023-02-02T10:09:31.291Z,99179.75
2023-02-02T10:12:15.973Z,99175.16
2023-02-02T10:15:12.626Z,99176.63
2023-02-02T10:17:46.211Z,99180.00
2023-02-02T10:20:33.083Z,99182.22
2023-02-02T10:23:09.928Z,99181.03
2023-02-02T10:25:38.105Z,99173.78
2023-02-02T10:28:18.707Z,99185.06
2023-02-02T10:30:50.667Z,99179.72
2023-02-02T10:33:38.762Z,99179.56
2023-02-02T10:36:21.886Z,99194.28
2023-02-02T10:39:09.707Z,99196.75
2023-02-02T10:42:15.796Z,99198.31
2023-02-02T10:44:58.558Z,99193.66
2023-02-02T10:47:30.697Z,99198.63
2023-02-02T10:50:12.556Z,99210.97
2023-02-02T10:52:43.762Z,99203.50
2023-02-02T10:55:42.711Z,99205.56
2023-02-02T10:58:12.269Z,99213.47
2023-02-02T11:00:55.961Z,99208.38
2023-02-02T11:03:26.161Z,99210.63
2023-02-02T11:06:11.516Z,99227.84
2023-02-02T11:08:59.484Z,99220.97
2023-02-02T11:11:32.963Z,99218.84
2023-02-02T11:14:11.271Z,99212.34
2023-02-02T11:16:43.793Z,99209.97
2023-02-02T11:19:16.874Z,99210.81
2023-02-02T11:21:58.758Z,99206.03
2023-02-02T11:24:40.536Z,99211.88
2023-02-02T11:27:12.700Z,99221.94
2023-02-02T11:29:39.228Z,99211.94
2023-02-02T11:32:27.926Z,99221.59
2023-02-02T11:35:03.807Z,99218.75
2023-02-02T11:37:32.108Z,99220.19
2023-02-02T11:40:17.366Z,99226.03
2023-02-02T11:42:47.748Z,99222.53
2023-02-02T11:45:18.616Z,99227.00
2023-02-02T11:47:46.116Z,99226.88
2023-02-02T11:50:27.525Z,99232.84
2023-02-02T11:52:55.056Z,99229.84
2023-02-02T11:55:27.847Z,99228.53
2023-02-02T11:58:42.371Z,99216.25
2023-02-02T12:01:23.138Z,99225.31
2023-02-02T12:03:52.188Z,99232.84
2023-02-02T12:06:27.548Z,99231.31
2023-02-02T12:09:01.255Z,99239.50
2023-02-02T12:12:00.700Z,99235.22
2023-02-02T12:14:53.815Z,99239.97
2023-02-02T12:17:48.478Z,99244.34
2023-02-02T12:20:27.828Z,99238.84
2023-02-02T12:23:25.598Z,99239.56
2023-02-02T12:26:24.563Z,99244.94
2023-02-02T12:29:31.147Z,99243.28
2023-02-02T12:32:13.886Z,99255.53
2023-02-02T12:35:05.280Z,99241.25
2023-02-02T12:37:37.789Z,99250.94
2023-02-02T12:40:24.747Z,99244.03
2023-02-02T12:43:13.410Z,99252.53
2023-02-02T12:45:46.160Z,99248.41
2023-02-02T12:48:19.444Z,99254.47
2023-02-02T12:51:24.484Z,99253.31
2023-02-02T12:54:34.684Z,99257.31
2023-02-02T12:57:08.062Z,99260.09
2023-02-02T13:00:13.379Z,99258.78
2023-02-02T13:02:58.982Z,99256.38
2023-02-02T13:05:56.591Z,99265.69
2023-02-02T13:09:04.589Z,99266.56
2023-02-02T13:11:55.928Z,99263.06
2023-02-02T13:14:43.457Z,99261.09
2023-02-02T13:17:41.730Z,99266.06
2023-02-02T13:20:37.401Z,99270.41
2023-02-02T13:23:13.631Z,99280.44
2023-02-02T13:25:48.786Z,99278.50
2023-02-02T13:28:50.829Z,99282.47
2023-02-02T13:31:24.975Z,99286.09
2023-02-02T13:34:05.221Z,99286.34
2023-02-02T13:36:37.462Z,99290.72
2023-02-02T13:39:17.161Z,99294.22
2023-02-02T13:41:44.583Z,99295.69
2023-02-02T13:44:31.502Z,99296.59
2023-02-02T13:47:05.211Z,99318.03
2023-02-02T13:49:42.981Z,99315.50
2023-02-02T13:52:21.682Z,99323.34
2023-02-02T13:55:00.422Z,99319.13
2023-02-02T13:57:41.973Z,99321.16
2023-02-02T14:00:23.337Z,99328.41
2023-02-02T14:02:56.158Z,99338.81
2023-02-02T14:05:35.518Z,99344.41
2023-02-02T14:08:21.988Z,99352.16
2023-02-02T14:10:54.628Z,99360.38
2023-02-02T14:13:44.613Z,99364.75
2023-02-02T14:16:32.670Z,99354.19
2023-02-02T14:19:00.501Z,99360.25
2023-02-02T14:21:33.378Z,99361.50
2023-02-02T14:24:04.996Z,99370.84
2023-02-02T14:26:57.195Z,99373.00
2023-02-02T14:29:29.463Z,99378.00
2023-02-02T14:32:02.326Z,99374.38
2023-02-02T14:34:41.735Z,99378.31
2023-02-02T14:37:26.377Z,99383.78
2023-02-02T14:40:11.079Z,99392.91
2023-02-02T14:43:05.271Z,99395.47
2023-02-02T14:45:35.850Z,99399.59
2023-02-02T14:48:09.142Z,99398.00
2023-02-02T14:50:38.764Z,99399.09
2023-02-02T14:53:28.603Z,99414.00
2023-02-02T14:56:12.560Z,99420.63
2023-02-02T14:58:53.507Z,99427.91
2023-02-02T15:01:29.018Z,99425.06
2023-02-02T15:04:15.685Z,99430.94
2023-02-02T15:06:43.227Z,99430.31
2023-02-02T15:09:23.246Z,99435.72
2023-02-02T15:12:00.827Z,99429.78
2023-02-02T15:14:34.263Z,99439.75
2023-02-02T15:17:25.933Z,99441.25
2023-02-02T15:20:21.145Z,99451.13
2023-02-02T15:22:47.920Z,99452.09
2023-02-02T15:25:26.266Z,99458.41
2023-02-02T15:28:08.968Z,99454.13
2023-02-02T15:30:41.220Z,99469.91
2023-02-02T15:33:21.135Z,99486.94
2023-02-02T15:35:48.978Z,99493.34
2023-02-02T15:38:20.821Z,99502.19
2023-02-02T15:40:48.838Z,99516.03
2023-02-02T15:43:15.699Z,99525.59
2023-02-02T15:46:02.171Z,99518.25
2023-02-02T15:48:31.348Z,99529.44
2023-02-02T15:51:02.135Z,99529.44
2023-02-02T15:53:32.660Z,99535.06
2023-02-02T15:55:59.376Z,99534.31
2023-02-02T15:58:33.077Z,99560.25
2023-02-02T16:01:15.369Z,99572.59
2023-02-02T16:04:05.206Z,99585.41
2023-02-02T16:06:34.799Z,99601.94
2023-02-02T16:09:05.853Z,99597.81
2023-02-02T16:11:33.128Z,99602.50
2023-02-02T16:14:05.312Z,99606.41
2023-02-02T16:16:34.832Z,99605.47
2023-02-02T16:19:21.661Z,99625.78
2023-02-02T16:22:05.076Z,99628.38
2023-02-02T16:24:39.905Z,99631.59
2023-02-02T16:27:12.359Z,99645.44
2023-02-02T16:29:40.223Z,99654.19
2023-02-02T16:32:06.961Z,99656.91
2023-02-02T16:34:49.956Z,99655.59
2023-02-02T16:37:22.670Z,99670.03
2023-02-02T16:39:49.775Z,99665.59
2023-02-02T16:42:31.578Z,99665.75
2023-02-02T16:44:59.999Z,99667.56
2023-02-02T16:47:26.649Z,99674.59
2023-02-02T16:50:09.127Z,99676.22
2023-02-02T16:52:52.728Z,99678.66
2023-02-02T16:55:21.758Z,99672.59
2023-02-02T16:57:50.945Z,99682.00
2023-02-02T17:00:20.634Z,99685.66
2023-02-02T17:02:51.035Z,99691.34
2023-02-02T17:05:33.336Z,99701.03
2023-02-02T17:08:08.106Z,99703.09
2023-02-02T17:10:36.432Z,99706.38
2023-02-02T17:13:24.545Z,99716.56
2023-02-02T17:15:52.722Z,99711.84
2023-02-02T17:18:19.417Z,99726.19
2023-02-02T17:20:46.149Z,99738.63
2023-02-02T17:23:17.441Z,99736.81
2023-02-02T17:25:44.397Z,99740.75
2023-02-02T17:28:13.559Z,99751.00
2023-02-02T17:30:43.368Z,99745.31
2023-02-02T17:33:15.084Z,99763.22
2023-02-02T17:35:54.145Z,99768.00
2023-02-02T17:38:26.261Z,99766.69
2023-02-02T17:40:55.591Z,99772.56
2023-02-02T17:43:23.224Z,99789.88
2023-02-02T17:45:50.927Z,99785.00
2023-02-02T17:48:19.190Z,99785.25
2023-02-02T17:50:46.876Z,99782.13
2023-02-02T17:53:18.310Z,99790.34
2023-02-02T17:55:47.909Z,99791.31
2023-02-02T17:58:18.219Z,99799.25
2023-02-02T18:00:54.180Z,99799.88
2023-02-02T18:03:24.194Z,99801.44
2023-02-02T18:05:52.058Z,99805.72
2023-02-02T18:08:19.520Z,99805.06
2023-02-02T18:10:47.664Z,99813.41
2023-02-02T18:13:20.508Z,99810.59
2023-02-02T18:15:49.936Z,99807.72
2023-02-02T18:18:17.973Z,99819.38
2023-02-02T18:20:50.476Z,99816.06
2023-02-02T18:23:19.279Z,99813.47
2023-02-02T18:25:47.803Z,99823.81
2023-02-02T18:28:17.278Z,99823.69
2023-02-02T18:30:45.730Z,99824.91
2023-02-02T18:33:13.859Z,99823.03
2023-02-02T18:35:48.057Z,99824.44
2023-02-02T18:38:15.154Z,99831.72
2023-02-02T18:40:41.851Z,99829.94
2023-02-02T18:43:08.825Z,99830.78
2023-02-02T18:45:36.545Z,99825.03
2023-02-02T18:48:03.499Z,99825.78
2023-02-02T18:50:30.127Z,99828.50
2023-02-02T18:52:56.941Z,99834.41
2023-02-02T18:55:23.786Z,99833.81
2023-02-02T18:57:50.560Z,99841.31
2023-02-02T19:00:18.371Z,99846.47
2023-02-02T19:02:44.915Z,99838.56
2023-02-02T19:05:30.457Z,99849.03
2023-02-02T19:07:58.036Z,99840.56
2023-02-02T19:10:26.940Z,99843.03
2023-02-02T19:13:05.392Z,99840.56
2023-02-02T19:15:37.685Z,99843.38
2023-02-02T19:18:13.305Z,99844.50
2023-02-02T19:20:40.021Z,99854.13
2023-02-02T19:23:18.695Z,99851.81
2023-02-02T19:25:51.085Z,99850.97
2023-02-02T19:28:26.437Z,99854.31
2023-02-02T19:30:54.939Z,99851.66
2023-02-02T19:33:29.618Z,99850.31
2023-02-02T19:35:56.388Z,99857.59
2023-02-02T19:38:29.044Z,99863.00
2023-02-02T19:40:55.678Z,99858.19
2023-02-02T19:43:28.214Z,99861.63
2023-02-02T19:45:59.325Z,99865.03
2023-02-02T19:48:31.206Z,99865.91
2023-02-02T19:50:59.032Z,99863.78
2023-02-02T19:53:35.177Z,99867.97
2023-02-02T19:56:07.609Z,99863.09
2023-02-02T19:58:37.306Z,99863.78
2023-02-02T20:01:19.375Z,99874.16
2023-02-02T20:03:46.770Z,99867.63
2023-02-02T20:06:22.517Z,99872.53
2023-02-02T20:08:49.372Z,99869.16
2023-02-02T20:11:15.937Z,99874.13
2023-02-02T20:13:46.522Z,99871.66
2023-02-02T20:16:18.614Z,99873.63
2023-02-02T20:18:50.737Z,99874.41
2023-02-02T20:21:26.333Z,99876.19
2023-02-02T20:23:53.314Z,99876.88
2023-02-02T20:26:35.125Z,99876.38
2023-02-02T20:29:24.534Z,99873.38
2023-02-02T20:31:53.514Z,99880.38
2023-02-02T20:34:35.156Z,99872.53
2023-02-02T20:37:14.239Z,99873.13
2023-02-02T20:39:48.042Z,99874.94
2023-02-02T20:42:15.185Z,99874.75
2023-02-02T20:44:41.906Z,99875.53
2023-02-02T20:47:08.935Z,99877.25
2023-02-02T20:49:37.736Z,99879.53
2023-02-02T20:52:08.156Z,99885.44
2023-02-02T20:54:34.831Z,99879.28
2023-02-02T20:57:02.276Z,99878.78
2023-02-02T20:59:29.334Z,99880.22
2023-02-02T21:01:56.237Z,99876.88
2023-02-02T21:04:23.075Z,99885.53
2023-02-02T21:06:50.245Z,99877.72
2023-02-02T21:09:17.864Z,99881.09
2023-02-02T21:11:44.487Z,99886.28
2023-02-02T21:14:11.166Z,99882.69
2023-02-02T21:16:37.954Z,99885.34
2023-02-02T21:19:04.739Z,99878.31
2023-02-02T21:21:32.299Z,99882.88
2023-02-02T21:24:00.774Z,99872.25
2023-02-02T21:26:30.300Z,99873.28
2023-02-02T21:28:58.339Z,99872.63
2023-02-02T21:31:25.779Z,99869.00
2023-02-02T21:33:53.226Z,99869.44
2023-02-02T21:36:33.551Z,99863.97
2023-02-02T21:39:30.322Z,99865.94
2023-02-02T21:42:09.232Z,99870.56
2023-02-02T21:44:38.817Z,99865.16
2023-02-02T21:47:34.525Z,99863.28
2023-02-02T21:50:20.512Z,99861.66
2023-02-02T21:52:47.607Z,99867.13
2023-02-02T21:55:33.477Z,99858.56
2023-02-02T21:58:10.767Z,99861.31
2023-02-02T22:00:37.428Z,99860.38
2023-02-02T22:03:29.445Z,99859.78
2023-02-02T22:06:18.030Z,99869.53
2023-02-02T22:08:44.749Z,99874.00
2023-02-02T22:11:23.508Z,99861.69
2023-02-02T22:13:50.797Z,99866.13
2023-02-02T22:16:20.823Z,99862.28
2023-02-02T22:18:47.843Z,99865.63
2023-02-02T22:21:18.794Z,99864.09
2023-02-02T22:23:46.768Z,99874.00
2023-02-02T22:26:33.500Z,99872.66
2023-02-02T22:29:02.177Z,99867.50
2023-02-02T22:31:28.889Z,99870.94
2023-02-02T22:33:55.584Z,99873.00
2023-02-02T22:36:22.267Z,99876.59
2023-02-02T22:38:48.840Z,99878.63
2023-02-02T22:41:15.554Z,99868.69
2023-02-02T22:43:42.240Z,99876.50
2023-02-02T22:46:09.047Z,99875.38
2023-02-02T22:48:35.759Z,99870.22
2023-02-02T22:51:02.344Z,99862.78
2023-02-02T22:53:29.013Z,99863.13
2023-02-02T22:55:56.743Z,99855.97
2023-02-02T22:58:24.888Z,99860.47
2023-02-02T23:00:51.826Z,99862.97
2023-02-02T23:03:18.523Z,99849.34
2023-02-02T23:05:45.321Z,99846.69
2023-02-02T23:08:11.915Z,99851.31
2023-02-02T23:10:38.653Z,99847.13
2023-02-02T23:13:06.009Z,99839.59
2023-02-02T23:15:33.402Z,99832.47
2023-02-02T23:18:00.233Z,99834.03
2023-02-02T23:20:28.042Z,99834.50
2023-02-02T23:22:54.914Z,99823.47
2023-02-02T23:25:22.084Z,99823.16
2023-02-02T23:27:48.876Z,99824.66
2023-02-02T23:30:15.557Z,99833.66
2023-02-02T23:32:42.246Z,99838.19
2023-02-02T23:35:10.789Z,99843.84
2023-02-02T23:37:38.241Z,99847.78
2023-02-02T23:40:05.769Z,99844.28
2023-02-02T23:42:33.614Z,99842.25
2023-02-02T23:45:00.355Z,99839.72
2023-02-02T23:47:26.985Z,99830.06
2023-02-02T23:49:53.735Z,99823.00
2023-02-02T23:52:20.685Z,99823.97
2023-02-02T23:54:47.538Z,99823.06
2023-02-02T23:57:14.266Z,99815.41
2023-02-02T23:59:40.942Z,99831.84
